KRMG/RMG METAR and TAF weather

Enter ICAO airport designator
Station Type Date Time Source
KRMG METAR 2022/11/27 07:53 UTC NOAA

KRMG 270753Z AUTO 14007KT 10SM -RA OVC008 14/13 A2976 RMK AO2 LTG DSNT W RAB33 SLP072 P0000 T01390128


Station Type Date Time Source
KRMG Decoded METAR 2022/11/27 07:53 UTC NOAA

ROME R. B. RUSSELL AIRPORT, GA, United States (KRMG) 34-21N 085-10W 193M
Nov 27, 2022 - 02:53 AM EST / 2022.11.27 0753 UTC
Wind: from the SE (140 degrees) at 8 MPH (7 KT):0
Visibility: 10 mile(s):0
Sky conditions: overcast
Weather: light rain; Lightning observed
Precipitation last hour: A trace
Temperature: 57.0 F (13.9 C)
Dew Point: 55.0 F (12.8 C)
Relative Humidity: 93%
Pressure (altimeter): 29.76 in. Hg (1007 hPa)
ob: KRMG 270753Z AUTO 14007KT 10SM -RA OVC008 14/13 A2976 RMK AO2 LTG DSNT W RAB33 SLP072 P0000 T01390128
cycle: 8

Station Type Date Time Source
KRMG TAF UTC NOAA

Error!

Example: see airport list